sensor_id;sensor_type;location;lat;lon;timestamp;pressure;altitude;pressure_sealevel;temperature;humidity
51229;BME280;37304;52.216;6.874;2023-03-04T00:01:30;102222.38;;;4.19;100.00
51229;BME280;37304;52.216;6.874;2023-03-04T00:06:30;102221.41;;;4.15;100.00
51229;BME280;37304;52.216;6.874;2023-03-04T00:11:31;102218.03;;;4.18;100.00
51229;BME280;37304;52.216;6.874;2023-03-04T00:16:31;102218.78;;;4.14;100.00
51229;BME280;37304;52.216;6.874;2023-03-04T00:21:32;102221.34;;;4.14;100.00
51229;BME280;37304;52.216;6.874;2023-03-04T00:26:32;102220.50;;;4.15;100.00
51229;BME280;37304;52.216;6.874;2023-03-04T00:31:32;102220.63;;;4.18;100.00
51229;BME280;37304;52.216;6.874;2023-03-04T00:36:33;102217.22;;;4.19;100.00
51229;BME280;37304;52.216;6.874;2023-03-04T00:41:33;102211.22;;;4.18;100.00
51229;BME280;37304;52.216;6.874;2023-03-04T00:46:34;102205.06;;;4.15;100.00
51229;BME280;37304;52.216;6.874;2023-03-04T00:51:34;102201.78;;;4.19;100.00
51229;BME280;37304;52.216;6.874;2023-03-04T00:56:34;102202.50;;;4.15;100.00
51229;BME280;37304;52.216;6.874;2023-03-04T01:01:35;102206.00;;;4.17;100.00
51229;BME280;37304;52.216;6.874;2023-03-04T01:06:35;102211.22;;;4.18;100.00
51229;BME280;37304;52.216;6.874;2023-03-04T01:11:35;102210.28;;;4.16;100.00
51229;BME280;37304;52.216;6.874;2023-03-04T01:16:36;102201.78;;;4.19;100.00
51229;BME280;37304;52.216;6.874;2023-03-04T01:21:36;102203.31;;;4.14;100.00
51229;BME280;37304;52.216;6.874;2023-03-04T01:26:37;102193.97;;;4.16;100.00
51229;BME280;37304;52.216;6.874;2023-03-04T01:31:37;102201.66;;;4.14;100.00
51229;BME280;37304;52.216;6.874;2023-03-04T01:36:37;102189.53;;;4.12;100.00
51229;BME280;37304;52.216;6.874;2023-03-04T01:41:38;102184.47;;;4.13;100.00
51229;BME280;37304;52.216;6.874;2023-03-04T01:46:42;102180.97;;;4.11;100.00
51229;BME280;37304;52.216;6.874;2023-03-04T01:51:47;102171.50;;;4.10;100.00
51229;BME280;37304;52.216;6.874;2023-03-04T01:56:50;102170.59;;;4.08;100.00
51229;BME280;37304;52.216;6.874;2023-03-04T02:01:56;102165.47;;;4.10;100.00
51229;BME280;37304;52.216;6.874;2023-03-04T02:06:58;102156.09;;;4.12;100.00
51229;BME280;37304;52.216;6.874;2023-03-04T02:12:00;102157.91;;;4.14;100.00
51229;BME280;37304;52.216;6.874;2023-03-04T02:17:00;102155.38;;;4.16;100.00
51229;BME280;37304;52.216;6.874;2023-03-04T02:22:01;102150.94;;;4.12;100.00
51229;BME280;37304;52.216;6.874;2023-03-04T02:27:02;102149.22;;;4.11;100.00
51229;BME280;37304;52.216;6.874;2023-03-04T02:32:02;102153.59;;;4.13;100.00
51229;BME280;37304;52.216;6.874;2023-03-04T02:37:03;102141.41;;;4.07;100.00
51229;BME280;37304;52.216;6.874;2023-03-04T02:42:04;102137.91;;;4.05;100.00
51229;BME280;37304;52.216;6.874;2023-03-04T02:47:06;102132.03;;;4.10;100.00
51229;BME280;37304;52.216;6.874;2023-03-04T02:52:19;102131.09;;;4.07;100.00
51229;BME280;37304;52.216;6.874;2023-03-04T02:57:21;102122.47;;;4.05;100.00
51229;BME280;37304;52.216;6.874;2023-03-04T03:02:21;102122.63;;;4.10;100.00
51229;BME280;37304;52.216;6.874;2023-03-04T03:07:21;102123.47;;;4.11;100.00
51229;BME280;37304;52.216;6.874;2023-03-04T03:12:22;102125.19;;;4.10;100.00
51229;BME280;37304;52.216;6.874;2023-03-04T03:17:22;102117.41;;;4.08;100.00
51229;BME280;37304;52.216;6.874;2023-03-04T03:22:22;102113.91;;;4.06;100.00
51229;BME280;37304;52.216;6.874;2023-03-04T03:27:23;102103.69;;;4.08;100.00
51229;BME280;37304;52.216;6.874;2023-03-04T03:32:24;102100.31;;;4.11;100.00
51229;BME280;37304;52.216;6.874;2023-03-04T03:37:24;102091.78;;;4.12;100.00
51229;BME280;37304;52.216;6.874;2023-03-04T03:42:24;102092.66;;;4.12;100.00
51229;BME280;37304;52.216;6.874;2023-03-04T03:47:26;102083.13;;;4.10;100.00
51229;BME280;37304;52.216;6.874;2023-03-04T03:52:26;102092.56;;;4.09;100.00
51229;BME280;37304;52.216;6.874;2023-03-04T03:57:28;102100.22;;;4.07;100.00
51229;BME280;37304;52.216;6.874;2023-03-04T04:02:28;102083.09;;;4.08;100.00
51229;BME280;37304;52.216;6.874;2023-03-04T04:07:28;102094.25;;;4.08;100.00
51229;BME280;37304;52.216;6.874;2023-03-04T04:12:29;102091.59;;;4.05;100.00
51229;BME280;37304;52.216;6.874;2023-03-04T04:17:29;102091.50;;;4.02;100.00
51229;BME280;37304;52.216;6.874;2023-03-04T04:22:30;102090.03;;;4.11;100.00
51229;BME280;37304;52.216;6.874;2023-03-04T04:27:30;102092.50;;;4.07;100.00
51229;BME280;37304;52.216;6.874;2023-03-04T04:32:30;102090.75;;;4.06;100.00
51229;BME280;37304;52.216;6.874;2023-03-04T04:37:31;102098.41;;;4.03;100.00
51229;BME280;37304;52.216;6.874;2023-03-04T04:42:31;102085.59;;;4.05;100.00
51229;BME280;37304;52.216;6.874;2023-03-04T04:47:32;102089.75;;;4.01;100.00
51229;BME280;37304;52.216;6.874;2023-03-04T04:52:32;102087.19;;;4.01;100.00
51229;BME280;37304;52.216;6.874;2023-03-04T04:57:33;102095.78;;;4.02;100.00
51229;BME280;37304;52.216;6.874;2023-03-04T05:02:36;102092.22;;;3.98;100.00
51229;BME280;37304;52.216;6.874;2023-03-04T05:07:36;102087.16;;;4.00;100.00
51229;BME280;37304;52.216;6.874;2023-03-04T05:12:37;102098.16;;;3.96;100.00
51229;BME280;37304;52.216;6.874;2023-03-04T05:17:37;102089.66;;;3.98;100.00
51229;BME280;37304;52.216;6.874;2023-03-04T05:22:37;102086.16;;;3.96;100.00
51229;BME280;37304;52.216;6.874;2023-03-04T05:27:38;102087.16;;;4.00;100.00
51229;BME280;37304;52.216;6.874;2023-03-04T05:32:38;102093.06;;;3.97;100.00
51229;BME280;37304;52.216;6.874;2023-03-04T05:37:38;102093.81;;;3.94;100.00
51229;BME280;37304;52.216;6.874;2023-03-04T05:42:39;102088.84;;;3.99;100.00
51229;BME280;37304;52.216;6.874;2023-03-04T05:47:39;102091.38;;;3.98;100.00
51229;BME280;37304;52.216;6.874;2023-03-04T05:52:40;102090.56;;;3.99;100.00
51229;BME280;37304;52.216;6.874;2023-03-04T05:57:40;102093.97;;;3.99;100.00
51229;BME280;37304;52.216;6.874;2023-03-04T06:02:41;102089.56;;;3.95;100.00
51229;BME280;37304;52.216;6.874;2023-03-04T06:07:43;102087.09;;;3.98;100.00
51229;BME280;37304;52.216;6.874;2023-03-04T06:12:43;102086.09;;;3.94;100.00
51229;BME280;37304;52.216;6.874;2023-03-04T06:17:44;102087.09;;;3.98;100.00
51229;BME280;37304;52.216;6.874;2023-03-04T06:22:44;102093.13;;;3.99;100.00
51229;BME280;37304;52.216;6.874;2023-03-04T06:27:44;102098.97;;;3.94;100.00
51229;BME280;37304;52.216;6.874;2023-03-04T06:32:45;102103.25;;;3.94;100.00
51229;BME280;37304;52.216;6.874;2023-03-04T06:37:47;102110.97;;;3.94;100.00
51229;BME280;37304;52.216;6.874;2023-03-04T06:42:48;102115.75;;;3.83;100.00
51229;BME280;37304;52.216;6.874;2023-03-04T06:47:48;102108.03;;;3.82;100.00
51229;BME280;37304;52.216;6.874;2023-03-04T06:52:48;102114.94;;;3.84;100.00
51229;BME280;37304;52.216;6.874;2023-03-04T06:57:49;102125.31;;;3.87;100.00
51229;BME280;37304;52.216;6.874;2023-03-04T07:02:50;102126.34;;;3.92;100.00
51229;BME280;37304;52.216;6.874;2023-03-04T07:07:50;102119.66;;;3.98;100.00
51229;BME280;37304;52.216;6.874;2023-03-04T07:12:50;102121.44;;;4.00;100.00
51229;BME280;37304;52.216;6.874;2023-03-04T07:17:51;102125.19;;;4.10;100.00
51229;BME280;37304;52.216;6.874;2023-03-04T07:22:51;102133.00;;;4.13;100.00
51229;BME280;37304;52.216;6.874;2023-03-04T07:27:52;102135.97;;;4.27;100.00
51229;BME280;37304;52.216;6.874;2023-03-04T07:32:56;102138.84;;;4.36;100.00
51229;BME280;37304;52.216;6.874;2023-03-04T07:37:57;102135.38;;;4.34;100.00
51229;BME280;37304;52.216;6.874;2023-03-04T07:42:57;102135.81;;;4.50;100.00
51229;BME280;37304;52.216;6.874;2023-03-04T07:47:58;102131.59;;;4.54;100.00
51229;BME280;37304;52.216;6.874;2023-03-04T07:52:58;102132.63;;;4.59;100.00
51229;BME280;37304;52.216;6.874;2023-03-04T07:57:59;102126.94;;;4.71;100.00
51229;BME280;37304;52.216;6.874;2023-03-04T08:02:59;102134.50;;;4.64;100.00
51229;BME280;37304;52.216;6.874;2023-03-04T08:07:59;102130.63;;;4.79;100.00
51229;BME280;37304;52.216;6.874;2023-03-04T08:13:00;102134.84;;;4.77;100.00
51229;BME280;37304;52.216;6.874;2023-03-04T08:18:01;102137.25;;;4.71;100.00
51229;BME280;37304;52.216;6.874;2023-03-04T08:23:01;102128.25;;;4.87;100.00
51229;BME280;37304;52.216;6.874;2023-03-04T08:28:02;102128.75;;;5.04;100.00
51229;BME280;37304;52.216;6.874;2023-03-04T08:33:02;102129.44;;;4.98;100.00
51229;BME280;37304;52.216;6.874;2023-03-04T08:38:03;102134.91;;;5.10;100.00
51229;BME280;37304;52.216;6.874;2023-03-04T08:43:03;102134.06;;;5.12;100.00
51229;BME280;37304;52.216;6.874;2023-03-04T08:48:03;102134.25;;;5.18;100.00
51229;BME280;37304;52.216;6.874;2023-03-04T08:53:04;102138.84;;;5.30;100.00
51229;BME280;37304;52.216;6.874;2023-03-04T08:58:05;102142.72;;;5.46;100.00
51229;BME280;37304;52.216;6.874;2023-03-04T09:03:06;102137.81;;;5.57;100.00
51229;BME280;37304;52.216;6.874;2023-03-04T09:08:06;102130.13;;;5.60;100.00
51229;BME280;37304;52.216;6.874;2023-03-04T09:13:07;102127.28;;;5.84;100.00
51229;BME280;37304;52.216;6.874;2023-03-04T09:18:10;102119.97;;;6.01;100.00
51229;BME280;37304;52.216;6.874;2023-03-04T09:23:12;102114.44;;;6.22;100.00
51229;BME280;37304;52.216;6.874;2023-03-04T09:28:13;102117.03;;;6.24;100.00
51229;BME280;37304;52.216;6.874;2023-03-04T09:33:13;102106.88;;;6.30;100.00
51229;BME280;37304;52.216;6.874;2023-03-04T09:38:14;102114.13;;;6.08;100.00
51229;BME280;37304;52.216;6.874;2023-03-04T09:43:24;102122.25;;;5.89;100.00
51229;BME280;37304;52.216;6.874;2023-03-04T09:48:36;102124.00;;;5.90;100.00
51229;BME280;37304;52.216;6.874;2023-03-04T09:59:31;102135.69;;;5.75;100.00
51229;BME280;37304;52.216;6.874;2023-03-04T10:04:40;102127.69;;;6.00;100.00
51229;BME280;37304;52.216;6.874;2023-03-04T10:09:52;102128.97;;;5.82;100.00
51229;BME280;37304;52.216;6.874;2023-03-04T10:15:05;102125.03;;;5.61;100.00
51229;BME280;37304;52.216;6.874;2023-03-04T10:30:52;102120.50;;;5.88;100.00
51229;BME280;37304;52.216;6.874;2023-03-04T10:41:22;102117.66;;;6.52;100.00
51229;BME280;37304;52.216;6.874;2023-03-04T10:46:25;102104.97;;;6.64;100.00
51229;BME280;37304;52.216;6.874;2023-03-04T10:51:28;102092.66;;;6.52;100.00
51229;BME280;37304;52.216;6.874;2023-03-04T10:56:35;102090.75;;;6.42;100.00
51229;BME280;37304;52.216;6.874;2023-03-04T11:01:36;102085.56;;;6.40;100.00
51229;BME280;37304;52.216;6.874;2023-03-04T11:06:40;102077.88;;;6.44;100.00
51229;BME280;37304;52.216;6.874;2023-03-04T11:11:42;102070.44;;;6.18;100.00
51229;BME280;37304;52.216;6.874;2023-03-04T11:16:52;102080.41;;;6.01;100.00
51229;BME280;37304;52.216;6.874;2023-03-04T11:21:54;102080.19;;;5.93;100.00
51229;BME280;37304;52.216;6.874;2023-03-04T11:27:02;102072.00;;;6.09;100.00
51229;BME280;37304;52.216;6.874;2023-03-04T11:32:22;102059.28;;;6.62;100.00
51229;BME280;37304;52.216;6.874;2023-03-04T11:37:39;102065.50;;;6.72;100.00
51229;BME280;37304;52.216;6.874;2023-03-04T11:53:36;102066.13;;;5.80;100.00
51229;BME280;37304;52.216;6.874;2023-03-04T12:04:30;102062.03;;;5.51;100.00
51229;BME280;37304;52.216;6.874;2023-03-04T12:10:05;102054.13;;;5.44;100.00
51229;BME280;37304;52.216;6.874;2023-03-04T12:15:27;102036.78;;;5.73;100.00
51229;BME280;37304;52.216;6.874;2023-03-04T12:26:09;102034.28;;;6.16;100.00
51229;BME280;37304;52.216;6.874;2023-03-04T12:31:33;102028.31;;;6.19;100.00
51229;BME280;37304;52.216;6.874;2023-03-04T12:36:51;102012.19;;;6.31;100.00
51229;BME280;37304;52.216;6.874;2023-03-04T12:48:01;102008.81;;;6.33;100.00
51229;BME280;37304;52.216;6.874;2023-03-04T12:53:22;102012.53;;;6.48;100.00
51229;BME280;37304;52.216;6.874;2023-03-04T12:58:29;102005.72;;;6.51;100.00
51229;BME280;37304;52.216;6.874;2023-03-04T13:24:46;101964.94;;;7.38;100.00
51229;BME280;37304;52.216;6.874;2023-03-04T13:29:50;101971.81;;;7.36;100.00
51229;BME280;37304;52.216;6.874;2023-03-04T13:34:51;101971.59;;;7.22;100.00
51229;BME280;37304;52.216;6.874;2023-03-04T13:40:31;101962.69;;;7.03;100.00
51229;BME280;37304;52.216;6.874;2023-03-04T13:50:58;101963.94;;;6.74;100.00
51229;BME280;37304;52.216;6.874;2023-03-04T13:56:11;101948.28;;;6.66;100.00
51229;BME280;37304;52.216;6.874;2023-03-04T14:01:32;101952.72;;;6.72;100.00
51229;BME280;37304;52.216;6.874;2023-03-04T14:06:33;101949.00;;;6.58;100.00
51229;BME280;37304;52.216;6.874;2023-03-04T14:11:35;101950.44;;;6.41;100.00
51229;BME280;37304;52.216;6.874;2023-03-04T14:16:47;101952.91;;;6.35;100.00
51229;BME280;37304;52.216;6.874;2023-03-04T14:21:49;101952.81;;;6.31;100.00
51229;BME280;37304;52.216;6.874;2023-03-04T14:27:03;101946.28;;;6.04;100.00
51229;BME280;37304;52.216;6.874;2023-03-04T14:32:05;101939.25;;;5.98;100.00
51229;BME280;37304;52.216;6.874;2023-03-04T14:37:20;101937.06;;;6.17;100.00
51229;BME280;37304;52.216;6.874;2023-03-04T14:42:24;101930.16;;;6.16;100.00
51229;BME280;37304;52.216;6.874;2023-03-04T14:47:39;101931.06;;;6.18;100.00
51229;BME280;37304;52.216;6.874;2023-03-04T14:52:46;101924.09;;;6.14;100.00
51229;BME280;37304;52.216;6.874;2023-03-04T14:57:49;101925.66;;;6.05;100.00
51229;BME280;37304;52.216;6.874;2023-03-04T15:02:54;101927.38;;;6.05;100.00
51229;BME280;37304;52.216;6.874;2023-03-04T15:07:59;101931.50;;;5.98;100.00
51229;BME280;37304;52.216;6.874;2023-03-04T15:13:02;101922.44;;;5.74;100.00
51229;BME280;37304;52.216;6.874;2023-03-04T15:23:23;101923.16;;;5.67;100.00
51229;BME280;37304;52.216;6.874;2023-03-04T15:28:33;101924.25;;;5.78;100.00
51229;BME280;37304;52.216;6.874;2023-03-04T15:33:34;101923.28;;;5.73;100.00
51229;BME280;37304;52.216;6.874;2023-03-04T15:38:35;101917.75;;;5.56;100.00
51229;BME280;37304;52.216;6.874;2023-03-04T15:43:35;101920.97;;;5.46;100.00
51229;BME280;37304;52.216;6.874;2023-03-04T15:48:36;101915.06;;;5.50;100.00
51229;BME280;37304;52.216;6.874;2023-03-04T15:53:38;101919.31;;;5.49;100.00
51229;BME280;37304;52.216;6.874;2023-03-04T15:58:40;101908.88;;;5.43;100.00
51229;BME280;37304;52.216;6.874;2023-03-04T16:13:56;101902.88;;;5.44;100.00
51229;BME280;37304;52.216;6.874;2023-03-04T16:18:56;101910.53;;;5.39;100.00
51229;BME280;37304;52.216;6.874;2023-03-04T16:23:57;101918.88;;;5.29;100.00
51229;BME280;37304;52.216;6.874;2023-03-04T16:28:57;101907.56;;;5.22;100.00
51229;BME280;37304;52.216;6.874;2023-03-04T16:33:59;101919.69;;;5.27;100.00
51229;BME280;37304;52.216;6.874;2023-03-04T16:39:03;101910.84;;;5.15;100.00
51229;BME280;37304;52.216;6.874;2023-03-04T16:44:08;101917.53;;;5.07;100.00
51229;BME280;37304;52.216;6.874;2023-03-04T16:49:13;101919.97;;;5.02;100.00
51229;BME280;37304;52.216;6.874;2023-03-04T16:54:18;101921.66;;;5.00;100.00
51229;BME280;37304;52.216;6.874;2023-03-04T16:59:22;101924.00;;;4.91;100.00
51229;BME280;37304;52.216;6.874;2023-03-04T17:04:23;101926.44;;;4.85;100.00
51229;BME280;37304;52.216;6.874;2023-03-04T17:09:23;101930.47;;;4.75;100.00
51229;BME280;37304;52.216;6.874;2023-03-04T17:14:24;101932.47;;;4.51;100.00
51229;BME280;37304;52.216;6.874;2023-03-04T17:19:25;101924.81;;;4.55;100.00
51229;BME280;37304;52.216;6.874;2023-03-04T17:24:26;101920.41;;;4.49;100.00
51229;BME280;37304;52.216;6.874;2023-03-04T17:29:26;101922.16;;;4.50;100.00
51229;BME280;37304;52.216;6.874;2023-03-04T17:34:27;101927.16;;;4.45;100.00
51229;BME280;37304;52.216;6.874;2023-03-04T17:39:27;101921.03;;;4.40;100.00
51229;BME280;37304;52.216;6.874;2023-03-04T17:44:28;101913.19;;;4.35;100.00
51229;BME280;37304;52.216;6.874;2023-03-04T17:49:28;101925.31;;;4.40;100.00
51229;BME280;37304;52.216;6.874;2023-03-04T17:54:29;101935.34;;;4.30;100.00
51229;BME280;37304;52.216;6.874;2023-03-04T17:59:29;101931.03;;;4.29;100.00
51229;BME280;37304;52.216;6.874;2023-03-04T18:04:30;101924.03;;;4.25;100.00
51229;BME280;37304;52.216;6.874;2023-03-04T18:09:31;101924.13;;;4.28;100.00
51229;BME280;37304;52.216;6.874;2023-03-04T18:14:31;101934.34;;;4.25;100.00
51229;BME280;37304;52.216;6.874;2023-03-04T18:19:32;101938.47;;;4.18;100.00
51229;BME280;37304;52.216;6.874;2023-03-04T18:24:32;101940.22;;;4.19;100.00
51229;BME280;37304;52.216;6.874;2023-03-04T18:29:32;101941.63;;;4.08;100.00
51229;BME280;37304;52.216;6.874;2023-03-04T18:34:34;101943.19;;;4.03;100.00
51229;BME280;37304;52.216;6.874;2023-03-04T18:39:34;101943.78;;;3.94;100.00
51229;BME280;37304;52.216;6.874;2023-03-04T18:44:35;101943.66;;;3.89;100.00
51229;BME280;37304;52.216;6.874;2023-03-04T18:49:36;101961.47;;;3.83;100.00
51229;BME280;37304;52.216;6.874;2023-03-04T18:54:37;101959.53;;;3.74;100.00
51229;BME280;37304;52.216;6.874;2023-03-04T18:59:58;101948.84;;;3.62;100.00
51229;BME280;37304;52.216;6.874;2023-03-04T19:05:05;101956.44;;;3.57;100.00
51229;BME280;37304;52.216;6.874;2023-03-04T19:10:07;101954.53;;;3.52;100.00
51229;BME280;37304;52.216;6.874;2023-03-04T19:15:08;101959.75;;;3.53;100.00
51229;BME280;37304;52.216;6.874;2023-03-04T19:20:10;101946.97;;;3.56;100.00
51229;BME280;37304;52.216;6.874;2023-03-04T19:25:11;101942.50;;;3.50;100.00
51229;BME280;37304;52.216;6.874;2023-03-04T19:30:13;101944.25;;;3.52;100.00
51229;BME280;37304;52.216;6.874;2023-03-04T19:35:14;101945.25;;;3.55;100.00
51229;BME280;37304;52.216;6.874;2023-03-04T19:40:15;101944.25;;;3.52;100.00
51229;BME280;37304;52.216;6.874;2023-03-04T19:45:16;101952.84;;;3.52;100.00
51229;BME280;37304;52.216;6.874;2023-03-04T19:50:16;101941.75;;;3.53;100.00
51229;BME280;37304;52.216;6.874;2023-03-04T19:55:18;101947.81;;;3.55;100.00
51229;BME280;37304;52.216;6.874;2023-03-04T20:00:19;101946.09;;;3.56;100.00
51229;BME280;37304;52.216;6.874;2023-03-04T20:05:19;101938.09;;;3.46;100.00
51229;BME280;37304;52.216;6.874;2023-03-04T20:10:20;101945.91;;;3.49;100.00
51229;BME280;37304;52.216;6.874;2023-03-04T20:15:20;101937.28;;;3.47;100.00
51229;BME280;37304;52.216;6.874;2023-03-04T20:20:20;101939.84;;;3.47;100.00
51229;BME280;37304;52.216;6.874;2023-03-04T20:25:22;101942.41;;;3.47;100.00
51229;BME280;37304;52.216;6.874;2023-03-04T20:30:23;101936.25;;;3.41;100.00
51229;BME280;37304;52.216;6.874;2023-03-04T20:35:24;101938.91;;;3.44;100.00
51229;BME280;37304;52.216;6.874;2023-03-04T20:40:24;101944.06;;;3.45;100.00
51229;BME280;37304;52.216;6.874;2023-03-04T20:45:25;101936.38;;;3.45;100.00
51229;BME280;37304;52.216;6.874;2023-03-04T20:50:25;101940.59;;;3.43;100.00
51229;BME280;37304;52.216;6.874;2023-03-04T20:55:26;101945.97;;;3.51;100.00
51229;BME280;37304;52.216;6.874;2023-03-04T21:00:27;101940.78;;;3.49;100.00
51229;BME280;37304;52.216;6.874;2023-03-04T21:05:29;101929.56;;;3.47;100.00
51229;BME280;37304;52.216;6.874;2023-03-04T21:10:34;101935.72;;;3.53;100.00
51229;BME280;37304;52.216;6.874;2023-03-04T21:15:34;101934.03;;;3.53;100.00
51229;BME280;37304;52.216;6.874;2023-03-04T21:20:34;101932.19;;;3.49;100.00
51229;BME280;37304;52.216;6.874;2023-03-04T21:25:35;101935.41;;;3.42;100.00
51229;BME280;37304;52.216;6.874;2023-03-04T21:30:35;101926.53;;;3.32;100.00
51229;BME280;37304;52.216;6.874;2023-03-04T21:35:36;101934.72;;;3.20;100.00
51229;BME280;37304;52.216;6.874;2023-03-04T21:40:39;101929.31;;;3.11;100.00
51229;BME280;37304;52.216;6.874;2023-03-04T21:45:42;101931.97;;;3.14;100.00
51229;BME280;37304;52.216;6.874;2023-03-04T21:50:42;101930.13;;;3.10;100.00
51229;BME280;37304;52.216;6.874;2023-03-04T21:55:49;101919.00;;;3.09;100.00
51229;BME280;37304;52.216;6.874;2023-03-04T22:00:55;101926.75;;;3.11;100.00
51229;BME280;37304;52.216;6.874;2023-03-04T22:06:02;101911.94;;;3.02;100.00
51229;BME280;37304;52.216;6.874;2023-03-04T22:11:05;101915.59;;;3.10;100.00
51229;BME280;37304;52.216;6.874;2023-03-04T22:16:07;101911.22;;;3.08;100.00
51229;BME280;37304;52.216;6.874;2023-03-04T22:21:12;101906.78;;;3.02;100.00
51229;BME280;37304;52.216;6.874;2023-03-04T22:26:25;101896.28;;;2.96;100.00
51229;BME280;37304;52.216;6.874;2023-03-04T22:31:33;101886.94;;;2.98;100.00
51229;BME280;37304;52.216;6.874;2023-03-04T22:36:36;101886.16;;;2.99;100.00
51229;BME280;37304;52.216;6.874;2023-03-04T22:41:37;101895.44;;;2.95;100.00
51229;BME280;37304;52.216;6.874;2023-03-04T22:46:38;101895.19;;;2.87;100.00
51229;BME280;37304;52.216;6.874;2023-03-04T22:51:40;101882.50;;;2.92;100.00
51229;BME280;37304;52.216;6.874;2023-03-04T22:56:41;101888.38;;;2.88;100.00
51229;BME280;37304;52.216;6.874;2023-03-04T23:01:42;101875.56;;;2.89;100.00
51229;BME280;37304;52.216;6.874;2023-03-04T23:06:42;101873.78;;;2.87;100.00
51229;BME280;37304;52.216;6.874;2023-03-04T23:11:42;101876.34;;;2.87;100.00
51229;BME280;37304;52.216;6.874;2023-03-04T23:16:43;101869.38;;;2.83;100.00
51229;BME280;37304;52.216;6.874;2023-03-04T23:21:44;101868.66;;;2.87;100.00
51229;BME280;37304;52.216;6.874;2023-03-04T23:26:44;101868.50;;;2.82;100.00
51229;BME280;37304;52.216;6.874;2023-03-04T23:31:44;101858.22;;;2.82;100.00
51229;BME280;37304;52.216;6.874;2023-03-04T23:36:45;101858.09;;;2.78;100.00
51229;BME280;37304;52.216;6.874;2023-03-04T23:41:45;101859.00;;;2.80;100.00
51229;BME280;37304;52.216;6.874;2023-03-04T23:46:46;101858.03;;;2.76;100.00
51229;BME280;37304;52.216;6.874;2023-03-04T23:51:46;101846.84;;;2.74;100.00
51229;BME280;37304;52.216;6.874;2023-03-04T23:56:46;101839.13;;;2.74;100.00
